| time (UTC) | temp C | wind direction | speed KPH | gust KPH | rain 1hr cm | rain 24hr cm | rain mn cm | humidity % | barometer mb |
| 20260906140251 | 21 | 75 | 4.8 | 8.0 | 0.00 | 0.00 | 0.00 | 91 | 1021.1 |
| 20260906135749 | 21 | 134 | 8.0 | 9.7 | 0.00 | 0.00 | 0.00 | 91 | 1021.1 |
| 20260906135244 | 21 | 136 | 4.8 | 8.0 | 0.00 | 0.00 | 0.00 | 91 | 1021.2 |
| 20260906134740 | 21 | 165 | 6.4 | 8.0 | 0.00 | 0.00 | 0.00 | 92 | 1021.2 |
| 20260906134235 | 20 | 89 | 6.4 | 8.0 | 0.00 | 0.00 | 0.00 | 92 | 1021.1 |
| 20260906133730 | 21 | 92 | 6.4 | 8.0 | 0.00 | 0.00 | 0.00 | 92 | 1021.2 |
| 20260906133226 | 20 | 68 | 3.2 | 4.8 | 0.00 | 0.00 | 0.00 | 92 | 1021.4 |
| 20260906132721 | 20 | 96 | 1.6 | 3.2 | 0.00 | 0.00 | 0.00 | 91 | 1021.2 |
| 20260906132216 | 20 | 100 | 3.2 | 4.8 | 0.00 | 0.00 | 0.00 | 92 | 1021.3 |
| 20260906131712 | 20 | 83 | 1.6 | 4.8 | 0.00 | 0.00 | 0.00 | 93 | 1021.4 |
| 20260906131206 | 20 | 77 | 1.6 | 4.8 | 0.00 | 0.00 | 0.00 | 93 | 1021.2 |
| 20260906130701 | 20 | 12 | 3.2 | 3.2 | 0.00 | 0.00 | 0.00 | 91 | 1020.8 |
| 20260906130151 | 20 | 51 | 1.6 | 3.2 | 0.00 | 0.00 | 0.00 | 91 | 1021.3 |
| 20260906125649 | 20 | 27 | 1.6 | 1.6 | 0.00 | 0.00 | 0.00 | 92 | 1021.2 |
| 20260906125148 | 20 | 66 | 1.6 | 3.2 | 0.00 | 0.00 | 0.00 | 92 | 1021.1 |
| 20260906124643 | 19 | 359 | 0.0 | 1.6 | 0.00 | 0.00 | 0.00 | 94 | 1020.9 |
| 20260906124139 | 18 | 355 | 0.0 | 0.0 | 0.00 | 0.00 | 0.00 | 95 | 1021.1 |
| 20260906123637 | 18 | 355 | 0.0 | 1.6 | 0.00 | 0.00 | 0.00 | 96 | 1020.8 |
| 20260906123133 | 18 | 15 | 1.6 | 1.6 | 0.00 | 0.00 | 0.00 | 96 | 1020.8 |
| 20260906122632 | 18 | 3 | 0.0 | 1.6 | 0.00 | 0.00 | 0.00 | 96 | 1020.8 |
| 20260906122128 | 17 | 61 | 1.6 | 3.2 | 0.00 | 0.00 | 0.00 | 97 | 1020.5 |
| 20260906121624 | 17 | 8 | 1.6 | 3.2 | 0.00 | 0.00 | 0.00 | 98 | 1020.7 |
| 20260906121120 | 17 | 43 | 1.6 | 3.2 | 0.00 | 0.00 | 0.00 | 99 | 1020.7 |
| 20260906120615 | 17 | 57 | 3.2 | 3.2 | 0.00 | 0.00 | 0.00 | 98 | 1020.5 |
| 20260906120113 | 17 | 10 | 0.0 | 1.6 | 0.00 | 0.00 | 0.00 | 99 | 1020.5 |
| 20260906115612 | 16 | 3 | 1.6 | 1.6 | 0.00 | 0.00 | 0.00 | 99 | 1020.5 |
| 20260906115108 | 16 | 352 | 0.0 | 1.6 | 0.00 | 0.00 | 0.00 | 99 | 1020.4 |
| 20260906114602 | 16 | 354 | 0.0 | 1.6 | 0.00 | 0.00 | 0.00 | 99 | 1020.4 |
| 20260906114057 | 16 | 355 | 1.6 | 3.2 | 0.00 | 0.00 | 0.00 | 99 | 1020.2 |
| 20260906113556 | 16 | 30 | 1.6 | 4.8 | 0.00 | 0.00 | 0.00 | 99 | 1020.0 |
| 20260906113051 | 16 | 19 | 1.6 | 3.2 | 0.00 | 0.00 | 0.00 | 99 | 1019.9 |
| 20260906112546 | 16 | 11 | 0.0 | 1.6 | 0.00 | 0.00 | 0.00 | 99 | 1020.0 |
| 20260906112043 | 16 | 8 | 1.6 | 3.2 | 0.00 | 0.00 | 0.00 | 99 | 1019.9 |
| 20260906111542 | 16 | 32 | 1.6 | 3.2 | 0.00 | 0.00 | 0.00 | 99 | 1020.1 |
| 20260906111037 | 16 | 15 | 1.6 | 3.2 | 0.00 | 0.00 | 0.00 | 99 | 1019.7 |
| 20260906110537 | 16 | 59 | 3.2 | 4.8 | 0.00 | 0.00 | 0.00 | 99 | 1019.9 |
| 20260906110036 | 16 | 5 | 1.6 | 1.6 | 0.00 | 0.00 | 0.00 | 99 | 1019.8 |
| 20260906105532 | 16 | 28 | 1.6 | 1.6 | 0.00 | 0.00 | 0.00 | 99 | 1019.8 |
| 20260906105028 | 16 | 3 | 1.6 | 1.6 | 0.00 | 0.00 | 0.00 | 99 | 1019.7 |
| 20260906104526 | 16 | 9 | 1.6 | 3.2 | 0.00 | 0.00 | 0.00 | 99 | 1019.7 |
| 20260906104021 | 16 | 9 | 1.6 | 4.8 | 0.00 | 0.00 | 0.00 | 99 | 1019.7 |
| 20260906103519 | 16 | 32 | 3.2 | 4.8 | 0.00 | 0.00 | 0.00 | 99 | 1019.8 |
| 20260906103015 | 16 | 16 | 1.6 | 3.2 | 0.00 | 0.00 | 0.00 | 99 | 1019.6 |
| 20260906102514 | 16 | 76 | 1.6 | 3.2 | 0.00 | 0.00 | 0.00 | 99 | 1019.3 |
| 20260906102009 | 16 | 38 | 3.2 | 4.8 | 0.00 | 0.00 | 0.00 | 99 | 1019.4 |
| 20260906101503 | 16 | 70 | 4.8 | 8.0 | 0.00 | 0.00 | 0.00 | 99 | 1019.5 |
| 20260906100958 | 16 | 29 | 3.2 | 3.2 | 0.00 | 0.00 | 0.00 | 99 | 1019.6 |
| 20260906100454 | 16 | 15 | 1.6 | 3.2 | 0.00 | 0.00 | 0.00 | 99 | 1019.6 |
| 20260906095948 | 16 | 358 | 0.0 | 3.2 | 0.00 | 0.00 | 0.00 | 99 | 1019.7 |
| 20260906095443 | 16 | 351 | 3.2 | 4.8 | 0.00 | 0.00 | 0.00 | 99 | 1019.9 |
| 20260906094938 | 16 | 13 | 3.2 | 3.2 | 0.00 | 0.00 | 0.00 | 99 | 1019.8 |
| 20260906094432 | 16 | 35 | 3.2 | 3.2 | 0.00 | 0.00 | 0.00 | 99 | 1019.7 |
| 20260906093928 | 16 | 15 | 4.8 | 9.7 | 0.00 | 0.00 | 0.00 | 99 | 1019.8 |
| 20260906093424 | 16 | 15 | 3.2 | 4.8 | 0.00 | 0.00 | 0.00 | 99 | 1019.7 |
| 20260906092919 | 16 | 349 | 1.6 | 3.2 | 0.00 | 0.00 | 0.00 | 99 | 1019.7 |
| 20260906092418 | 16 | 16 | 3.2 | 4.8 | 0.00 | 0.00 | 0.00 | 99 | 1019.8 |
| 20260906091914 | 16 | 329 | 3.2 | 4.8 | 0.00 | 0.00 | 0.00 | 99 | 1019.7 |
| 20260906091410 | 16 | 329 | 4.8 | 8.0 | 0.00 | 0.00 | 0.00 | 99 | 1019.8 |
| 20260906090906 | 16 | 346 | 1.6 | 3.2 | 0.00 | 0.00 | 0.00 | 99 | 1019.9 |
| 20260906090406 | 16 | 352 | 1.6 | 3.2 | 0.00 | 0.00 | 0.00 | 99 | 1019.6 |
| 20260906085901 | 16 | 11 | 0.0 | 1.6 | 0.00 | 0.00 | 0.00 | 99 | 1019.3 |
| 20260906085400 | 16 | 22 | 3.2 | 3.2 | 0.00 | 0.00 | 0.00 | 99 | 1019.4 |
| 20260906084859 | 16 | 47 | 3.2 | 4.8 | 0.00 | 0.00 | 0.00 | 99 | 1019.4 |
| 20260906084354 | 16 | 32 | 1.6 | 3.2 | 0.00 | 0.00 | 0.00 | 99 | 1019.4 |
| 20260906083848 | 16 | 21 | 3.2 | 4.8 | 0.00 | 0.00 | 0.00 | 99 | 1019.6 |
| 20260906083344 | 16 | 353 | 3.2 | 4.8 | 0.00 | 0.00 | 0.00 | 99 | 1019.6 |
| 20260906082843 | 16 | 354 | 1.6 | 3.2 | 0.00 | 0.00 | 0.00 | 99 | 1019.5 |
| 20260906082338 | 16 | 346 | 4.8 | 4.8 | 0.00 | 0.00 | 0.00 | 99 | 1019.6 |
| 20260906081835 | 16 | 349 | 4.8 | 4.8 | 0.00 | 0.00 | 0.00 | 99 | 1019.6 |
| 20260906081330 | 16 | 343 | 3.2 | 3.2 | 0.00 | 0.00 | 0.00 | 99 | 1019.5 |
| 20260906080826 | 16 | 335 | 1.6 | 3.2 | 0.00 | 0.00 | 0.00 | 99 | 1019.4 |
| 20260906080322 | 17 | 357 | 4.8 | 4.8 | 0.00 | 0.00 | 0.00 | 99 | 1019.5 |
| 20260906075822 | 17 | 355 | 1.6 | 4.8 | 0.00 | 0.00 | 0.00 | 99 | 1019.3 |
| 20260906075322 | 17 | 2 | 1.6 | 1.6 | 0.00 | 0.00 | 0.00 | 99 | 1019.5 |
| 20260906074817 | 17 | 3 | 1.6 | 3.2 | 0.00 | 0.00 | 0.00 | 99 | 1019.5 |
| 20260906074317 | 17 | 5 | 1.6 | 1.6 | 0.00 | 0.00 | 0.00 | 99 | 1019.4 |
| 20260906073816 | 17 | 355 | 0.0 | 0.0 | 0.00 | 0.00 | 0.00 | 99 | 1019.2 |
| 20260906073311 | 17 | 347 | 0.0 | 1.6 | 0.00 | 0.00 | 0.00 | 99 | 1019.3 |
| 20260906072807 | 17 | 6 | 1.6 | 1.6 | 0.00 | 0.00 | 0.00 | 99 | 1019.3 |
| 20260906072305 | 17 | 2 | 0.0 | 3.2 | 0.00 | 0.00 | 0.00 | 99 | 1019.4 |
| 20260906071758 | 17 | 2 | 0.0 | 1.6 | 0.00 | 0.00 | 0.00 | 99 | 1019.4 |
| 20260906071253 | 17 | 16 | 1.6 | 1.6 | 0.00 | 0.00 | 0.00 | 99 | 1019.1 |
| 20260906070749 | 17 | 6 | 1.6 | 1.6 | 0.00 | 0.00 | 0.00 | 99 | 1019.5 |
| 20260906070244 | 17 | 3 | 3.2 | 3.2 | 0.00 | 0.00 | 0.00 | 99 | 1019.6 |
| 20260906065744 | 17 | 357 | 1.6 | 3.2 | 0.00 | 0.00 | 0.00 | 99 | 1019.5 |
| 20260906065239 | 17 | 16 | 3.2 | 3.2 | 0.00 | 0.00 | 0.00 | 99 | 1019.5 |
| 20260906064735 | 17 | 11 | 3.2 | 3.2 | 0.00 | 0.00 | 0.00 | 99 | 1019.5 |
| 20260906064230 | 17 | 0 | 0.0 | 3.2 | 0.00 | 0.00 | 0.00 | 99 | 1019.5 |
| 20260906063725 | 17 | 6 | 1.6 | 1.6 | 0.00 | 0.00 | 0.00 | 99 | 1019.4 |
| 20260906063221 | 17 | 16 | 1.6 | 1.6 | 0.00 | 0.00 | 0.00 | 99 | 1019.7 |
| 20260906062716 | 17 | 22 | 1.6 | 3.2 | 0.00 | 0.00 | 0.00 | 99 | 1019.5 |
| 20260906062215 | 17 | 8 | 1.6 | 3.2 | 0.00 | 0.00 | 0.00 | 99 | 1019.4 |
| 20260906061711 | 17 | 1 | 1.6 | 3.2 | 0.00 | 0.00 | 0.00 | 99 | 1019.5 |
| 20260906061207 | 17 | 16 | 3.2 | 3.2 | 0.00 | 0.00 | 0.00 | 99 | 1019.5 |
| 20260906060703 | 17 | 9 | 1.6 | 3.2 | 0.00 | 0.00 | 0.00 | 99 | 1019.5 |
| 20260906060200 | 17 | 342 | 1.6 | 1.6 | 0.00 | 0.00 | 0.00 | 99 | 1019.6 |
| 20260906055655 | 17 | 345 | 3.2 | 4.8 | 0.00 | 0.00 | 0.00 | 99 | 1019.5 |
| 20260906055150 | 17 | 340 | 3.2 | 3.2 | 0.00 | 0.00 | 0.00 | 99 | 1019.6 |
| 20260906054646 | 17 | 332 | 1.6 | 4.8 | 0.00 | 0.00 | 0.00 | 99 | 1019.4 |
| 20260906054140 | 17 | 338 | 3.2 | 4.8 | 0.00 | 0.00 | 0.00 | 99 | 1019.5 |
| 20260906053637 | 17 | 331 | 1.6 | 1.6 | 0.00 | 0.00 | 0.00 | 99 | 1019.5 |
| 20260906053132 | 17 | 350 | 1.6 | 1.6 | 0.00 | 0.00 | 0.00 | 99 | 1019.4 |
| 20260906052627 | 17 | 338 | 1.6 | 1.6 | 0.00 | 0.00 | 0.00 | 99 | 1019.3 |
| 20260906052124 | 17 | 341 | 0.0 | 1.6 | 0.00 | 0.00 | 0.00 | 99 | 1019.5 |
| 20260906051620 | 17 | 335 | 1.6 | 1.6 | 0.00 | 0.00 | 0.00 | 99 | 1019.6 |
| 20260906051114 | 18 | 356 | 1.6 | 3.2 | 0.00 | 0.00 | 0.00 | 99 | 1019.4 |
| 20260906050610 | 18 | 343 | 3.2 | 4.8 | 0.00 | 0.00 | 0.00 | 99 | 1019.4 |
| 20260906050105 | 18 | 333 | 1.6 | 3.2 | 0.00 | 0.00 | 0.00 | 99 | 1019.7 |
| 20260906045603 | 18 | 351 | 1.6 | 4.8 | 0.00 | 0.00 | 0.00 | 97 | 1019.6 |
| 20260906045059 | 18 | 6 | 3.2 | 3.2 | 0.00 | 0.00 | 0.00 | 97 | 1019.2 |
| 20260906044554 | 18 | 8 | 1.6 | 3.2 | 0.00 | 0.00 | 0.00 | 96 | 1019.2 |
| 20260906044044 | 18 | 86 | 3.2 | 4.8 | 0.00 | 0.00 | 0.00 | 95 | 1019.2 |
| 20260906043540 | 18 | 74 | 4.8 | 4.8 | 0.00 | 0.00 | 0.00 | 95 | 1019.1 |
| 20260906043036 | 18 | 78 | 3.2 | 4.8 | 0.00 | 0.00 | 0.00 | 96 | 1019.0 |
| 20260906042534 | 18 | 54 | 1.6 | 3.2 | 0.00 | 0.00 | 0.00 | 97 | 1019.1 |
| 20260906042029 | 18 | 84 | 4.8 | 4.8 | 0.00 | 0.00 | 0.00 | 97 | 1019.2 |
| 20260906041525 | 18 | 95 | 1.6 | 3.2 | 0.00 | 0.00 | 0.00 | 97 | 1018.9 |
| 20260906041025 | 18 | 86 | 1.6 | 3.2 | 0.00 | 0.00 | 0.00 | 97 | 1019.0 |
| 20260906040520 | 18 | 31 | 1.6 | 3.2 | 0.00 | 0.00 | 0.00 | 98 | 1019.0 |
| 20260906040016 | 18 | 77 | 1.6 | 4.8 | 0.00 | 0.00 | 0.00 | 97 | 1018.8 |
| 20260906035511 | 19 | 104 | 4.8 | 8.0 | 0.00 | 0.00 | 0.00 | 98 | 1018.9 |
| 20260906035007 | 19 | 75 | 4.8 | 8.0 | 0.00 | 0.00 | 0.00 | 98 | 1018.7 |
| 20260906034507 | 19 | 19 | 4.8 | 4.8 | 0.00 | 0.00 | 0.00 | 98 | 1018.7 |
| 20260906034001 | 19 | 84 | 4.8 | 8.0 | 0.00 | 0.00 | 0.00 | 99 | 1018.7 |
| 20260906033456 | 19 | 88 | 4.8 | 4.8 | 0.00 | 0.00 | 0.00 | 99 | 1018.5 |
| 20260906032952 | 19 | 67 | 3.2 | 4.8 | 0.00 | 0.00 | 0.00 | 99 | 1018.6 |
| 20260906032448 | 19 | 105 | 4.8 | 8.0 | 0.00 | 0.00 | 0.00 | 99 | 1018.6 |
| 20260906031943 | 19 | 63 | 3.2 | 4.8 | 0.00 | 0.00 | 0.00 | 98 | 1018.8 |
| 20260906031438 | 19 | 72 | 3.2 | 4.8 | 0.00 | 0.00 | 0.00 | 98 | 1018.6 |
| 20260906030933 | 19 | 65 | 3.2 | 4.8 | 0.00 | 0.00 | 0.00 | 98 | 1018.6 |
| 20260906030428 | 20 | 58 | 1.6 | 9.7 | 0.00 | 0.00 | 0.00 | 98 | 1018.7 |
| 20260906025922 | 20 | 99 | 3.2 | 4.8 | 0.00 | 0.00 | 0.00 | 98 | 1018.8 |
| 20260906025417 | 20 | 83 | 3.2 | 4.8 | 0.00 | 0.00 | 0.00 | 97 | 1018.8 |
| 20260906024916 | 20 | 66 | 1.6 | 4.8 | 0.00 | 0.00 | 0.00 | 97 | 1018.6 |
| 20260906024415 | 20 | 100 | 4.8 | 8.0 | 0.00 | 0.00 | 0.00 | 97 | 1018.4 |
| 20260906023910 | 20 | 92 | 4.8 | 8.0 | 0.00 | 0.00 | 0.00 | 97 | 1018.0 |
| 20260906023407 | 20 | 81 | 4.8 | 8.0 | 0.00 | 0.00 | 0.00 | 97 | 1018.2 |
| 20260906022906 | 20 | 99 | 8.0 | 9.7 | 0.00 | 0.00 | 0.00 | 97 | 1018.0 |
| 20260906022401 | 20 | 52 | 4.8 | 8.0 | 0.00 | 0.00 | 0.00 | 97 | 1018.1 |
| 20260906021857 | 20 | 61 | 4.8 | 4.8 | 0.00 | 0.00 | 0.00 | 97 | 1018.4 |
| 20260906021356 | 20 | 98 | 4.8 | 4.8 | 0.00 | 0.00 | 0.00 | 97 | 1018.3 |
| 20260906020851 | 20 | 71 | 3.2 | 9.7 | 0.00 | 0.00 | 0.00 | 97 | 1018.1 |
| 20260906020351 | 20 | 98 | 4.8 | 8.0 | 0.00 | 0.00 | 0.00 | 97 | 1017.9 |
| 20260906015846 | 20 | 111 | 4.8 | 4.8 | 0.00 | 0.00 | 0.00 | 97 | 1018.1 |
| 20260906015344 | 20 | 104 | 6.4 | 9.7 | 0.00 | 0.00 | 0.00 | 96 | 1018.0 |
| 20260906014839 | 20 | 101 | 8.0 | 11.3 | 0.00 | 0.00 | 0.00 | 96 | 1017.9 |
| 20260906014333 | 20 | 122 | 6.4 | 12.9 | 0.00 | 0.00 | 0.00 | 96 | 1017.9 |
| 20260906013830 | 20 | 73 | 8.0 | 11.3 | 0.00 | 0.00 | 0.00 | 96 | 1017.9 |
| 20260906013325 | 20 | 84 | 3.2 | 9.7 | 0.00 | 0.00 | 0.00 | 96 | 1018.0 |
| 20260906012821 | 20 | 77 | 9.7 | 12.9 | 0.00 | 0.00 | 0.00 | 96 | 1017.7 |
| 20260906012321 | 20 | 104 | 6.4 | 11.3 | 0.00 | 0.00 | 0.00 | 95 | 1017.8 |
| 20260906011815 | 21 | 96 | 8.0 | 12.9 | 0.00 | 0.00 | 0.00 | 95 | 1017.6 |
| 20260906011315 | 21 | 98 | 9.7 | 12.9 | 0.00 | 0.00 | 0.00 | 95 | 1017.6 |
| 20260906010812 | 21 | 97 | 6.4 | 9.7 | 0.00 | 0.00 | 0.00 | 94 | 1017.9 |
| 20260906010308 | 21 | 96 | 6.4 | 12.9 | 0.00 | 0.00 | 0.00 | 93 | 1017.8 |
| 20260906005802 | 21 | 83 | 6.4 | 11.3 | 0.00 | 0.00 | 0.00 | 93 | 1017.7 |
| 20260906005301 | 21 | 58 | 6.4 | 11.3 | 0.00 | 0.00 | 0.00 | 92 | 1017.8 |
| 20260906004800 | 21 | 125 | 6.4 | 14.5 | 0.00 | 0.00 | 0.00 | 92 | 1017.9 |
| 20260906004256 | 21 | 53 | 8.0 | 11.3 | 0.00 | 0.00 | 0.00 | 92 | 1017.8 |
| 20260906003756 | 21 | 98 | 8.0 | 12.9 | 0.00 | 0.00 | 0.00 | 91 | 1018.0 |
| 20260906003252 | 21 | 73 | 6.4 | 11.3 | 0.00 | 0.00 | 0.00 | 91 | 1018.0 |
| 20260906002747 | 22 | 98 | 11.3 | 14.5 | 0.00 | 0.00 | 0.00 | 90 | 1018.0 |
| 20260906002246 | 22 | 71 | 8.0 | 12.9 | 0.00 | 0.00 | 0.00 | 90 | 1017.9 |
| 20260906001742 | 22 | 113 | 6.4 | 11.3 | 0.00 | 0.00 | 0.00 | 91 | 1018.2 |
| 20260906001237 | 22 | 85 | 4.8 | 12.9 | 0.00 | 0.00 | 0.00 | 90 | 1018.0 |
| 20260906000732 | 22 | 71 | 8.0 | 11.3 | 0.00 | 0.00 | 0.00 | 89 | 1018.0 |
| 20260906000234 | 22 | 89 | 6.4 | 12.9 | 0.00 | 0.00 | 0.00 | 89 | 1017.9 |
| 20260905235733 | 22 | 123 | 11.3 | 17.7 | 0.00 | 0.00 | 0.00 | 88 | 1017.9 |
| 20260905235227 | 23 | 117 | 6.4 | 11.3 | 0.00 | 0.00 | 0.00 | 88 | 1017.7 |
| 20260905234723 | 23 | 108 | 11.3 | 24.1 | 0.00 | 0.00 | 0.00 | 87 | 1017.8 |
| 20260905234218 | 23 | 90 | 8.0 | 16.1 | 0.00 | 0.00 | 0.00 | 87 | 1017.6 |
| 20260905233713 | 23 | 107 | 14.5 | 20.9 | 0.00 | 0.00 | 0.00 | 88 | 1017.6 |
| 20260905233212 | 23 | 102 | 9.7 | 12.9 | 0.00 | 0.00 | 0.00 | 87 | 1017.7 |
| 20260905232707 | 23 | 79 | 8.0 | 12.9 | 0.00 | 0.00 | 0.00 | 86 | 1017.8 |
| 20260905232203 | 23 | 69 | 11.3 | 12.9 | 0.00 | 0.00 | 0.00 | 86 | 1017.6 |
| 20260905231659 | 23 | 78 | 11.3 | 16.1 | 0.00 | 0.00 | 0.00 | 86 | 1017.6 |
| 20260905231154 | 23 | 66 | 14.5 | 16.1 | 0.00 | 0.00 | 0.00 | 86 | 1017.5 |
| 20260905230650 | 23 | 100 | 11.3 | 14.5 | 0.00 | 0.00 | 0.00 | 86 | 1017.7 |
| 20260905230148 | 24 | 131 | 8.0 | 9.7 | 0.00 | 0.00 | 0.00 | 85 | 1017.9 |
| 20260905225647 | 24 | 49 | 4.8 | 9.7 | 0.00 | 0.00 | 0.00 | 84 | 1017.8 |
| 20260905225142 | 25 | 103 | 8.0 | 11.3 | 0.00 | 0.00 | 0.00 | 84 | 1017.5 |
| 20260905224641 | 25 | 55 | 8.0 | 11.3 | 0.00 | 0.00 | 0.00 | 83 | 1017.8 |
| 20260905224136 | 25 | 85 | 9.7 | 12.9 | 0.00 | 0.00 | 0.00 | 83 | 1017.5 |
| 20260905223633 | 25 | 100 | 9.7 | 12.9 | 0.00 | 0.00 | 0.00 | 82 | 1017.6 |
| 20260905223129 | 25 | 96 | 8.0 | 11.3 | 0.00 | 0.00 | 0.00 | 81 | 1017.6 |
| 20260905222624 | 25 | 24 | 8.0 | 11.3 | 0.00 | 0.00 | 0.00 | 82 | 1017.5 |
| 20260905222114 | 25 | 100 | 8.0 | 16.1 | 0.00 | 0.00 | 0.00 | 82 | 1017.6 |
| 20260905221609 | 25 | 85 | 9.7 | 14.5 | 0.00 | 0.00 | 0.00 | 81 | 1017.4 |
| 20260905221106 | 25 | 126 | 4.8 | 12.9 | 0.00 | 0.00 | 0.00 | 80 | 1017.1 |
| 20260905220601 | 25 | 86 | 6.4 | 14.5 | 0.00 | 0.00 | 0.00 | 80 | 1017.3 |
| 20260905220057 | 25 | 95 | 6.4 | 11.3 | 0.00 | 0.00 | 0.00 | 80 | 1017.3 |
| 20260905215556 | 25 | 57 | 6.4 | 12.9 | 0.00 | 0.00 | 0.00 | 82 | 1017.2 |
| 20260905215052 | 25 | 52 | 11.3 | 14.5 | 0.00 | 0.00 | 0.00 | 82 | 1017.1 |
| 20260905214548 | 25 | 92 | 9.7 | 16.1 | 0.00 | 0.00 | 0.00 | 82 | 1017.4 |
| 20260905214043 | 25 | 119 | 8.0 | 14.5 | 0.00 | 0.00 | 0.00 | 83 | 1017.2 |
| 20260905213538 | 25 | 62 | 4.8 | 9.7 | 0.00 | 0.00 | 0.00 | 84 | 1017.4 |
| 20260905213034 | 25 | 78 | 6.4 | 12.9 | 0.00 | 0.00 | 0.00 | 84 | 1017.1 |
| 20260905212534 | 25 | 46 | 9.7 | 16.1 | 0.00 | 0.00 | 0.00 | 84 | 1017.1 |
| 20260905212028 | 25 | 59 | 6.4 | 12.9 | 0.00 | 0.00 | 0.00 | 84 | 1016.9 |
| 20260905211523 | 25 | 46 | 4.8 | 9.7 | 0.00 | 0.00 | 0.00 | 84 | 1017.5 |
| 20260905211019 | 25 | 68 | 8.0 | 9.7 | 0.00 | 0.00 | 0.00 | 83 | 1017.3 |
| 20260905210515 | 25 | 44 | 9.7 | 14.5 | 0.00 | 0.00 | 0.00 | 83 | 1017.4 |
| 20260905210014 | 25 | 31 | 11.3 | 17.7 | 0.00 | 0.00 | 0.00 | 82 | 1017.1 |
| 20260905205508 | 25 | 87 | 14.5 | 17.7 | 0.00 | 0.00 | 0.00 | 84 | 1016.8 |
| 20260905205008 | 26 | 44 | 12.9 | 17.7 | 0.00 | 0.00 | 0.00 | 83 | 1016.9 |
| 20260905204503 | 25 | 58 | 8.0 | 14.5 | 0.00 | 0.00 | 0.00 | 83 | 1017.1 |
| 20260905204003 | 25 | 112 | 9.7 | 16.1 | 0.00 | 0.00 | 0.00 | 82 | 1016.9 |
| 20260905203458 | 25 | 91 | 9.7 | 16.1 | 0.00 | 0.00 | 0.00 | 84 | 1017.2 |
| 20260905202953 | 25 | 42 | 4.8 | 16.1 | 0.00 | 0.00 | 0.00 | 84 | 1017.2 |
| 20260905202448 | 26 | 295 | 8.0 | 12.9 | 0.00 | 0.00 | 0.00 | 82 | 1017.2 |
| 20260905201944 | 26 | 89 | 9.7 | 12.9 | 0.00 | 0.00 | 0.00 | 82 | 1017.2 |
| 20260905201439 | 26 | 14 | 8.0 | 12.9 | 0.00 | 0.00 | 0.00 | 82 | 1017.3 |
| 20260905200938 | 26 | 58 | 12.9 | 16.1 | 0.00 | 0.00 | 0.00 | 83 | 1017.1 |
| 20260905200435 | 26 | 60 | 4.8 | 9.7 | 0.00 | 0.00 | 0.00 | 82 | 1017.1 |
| 20260905195933 | 25 | 76 | 8.0 | 16.1 | 0.00 | 0.00 | 0.00 | 84 | 1017.2 |
| 20260905195428 | 26 | 80 | 12.9 | 17.7 | 0.00 | 0.00 | 0.00 | 80 | 1017.4 |
| 20260905194924 | 27 | 105 | 9.7 | 14.5 | 0.00 | 0.00 | 0.00 | 81 | 1017.2 |
| 20260905194423 | 27 | 55 | 3.2 | 8.0 | 0.00 | 0.00 | 0.00 | 80 | 1017.4 |
| 20260905193923 | 27 | 58 | 9.7 | 12.9 | 0.00 | 0.00 | 0.00 | 78 | 1017.2 |
| 20260905193418 | 27 | 343 | 4.8 | 9.7 | 0.00 | 0.00 | 0.00 | 79 | 1017.5 |
| 20260905192913 | 27 | 335 | 8.0 | 11.3 | 0.00 | 0.00 | 0.00 | 78 | 1017.2 |
| 20260905192409 | 27 | 16 | 3.2 | 8.0 | 0.00 | 0.00 | 0.00 | 78 | 1017.4 |
| 20260905191909 | 27 | 96 | 4.8 | 8.0 | 0.00 | 0.00 | 0.00 | 80 | 1017.2 |
| 20260905191408 | 26 | 93 | 3.2 | 4.8 | 0.00 | 0.00 | 0.00 | 79 | 1017.4 |
| 20260905190903 | 26 | 103 | 4.8 | 8.0 | 0.00 | 0.00 | 0.00 | 79 | 1017.4 |
| 20260905190400 | 26 | 73 | 4.8 | 9.7 | 0.00 | 0.00 | 0.00 | 80 | 1017.5 |
| 20260905185859 | 26 | 26 | 4.8 | 9.7 | 0.00 | 0.00 | 0.00 | 80 | 1017.3 |
| 20260905185355 | 26 | 29 | 6.4 | 9.7 | 0.00 | 0.00 | 0.00 | 79 | 1017.4 |
| 20260905184854 | 26 | 16 | 3.2 | 11.3 | 0.00 | 0.00 | 0.00 | 79 | 1017.3 |
| 20260905184353 | 26 | 44 | 8.0 | 12.9 | 0.00 | 0.00 | 0.00 | 78 | 1017.6 |
| 20260905183851 | 26 | 352 | 4.8 | 12.9 | 0.00 | 0.00 | 0.00 | 79 | 1017.5 |
| 20260905183347 | 25 | 23 | 4.8 | 8.0 | 0.00 | 0.00 | 0.00 | 82 | 1017.6 |
| 20260905182842 | 25 | 28 | 8.0 | 9.7 | 0.00 | 0.00 | 0.00 | 82 | 1017.5 |
| 20260905182341 | 25 | 58 | 8.0 | 14.5 | 0.00 | 0.00 | 0.00 | 85 | 1017.5 |
| 20260905181837 | 26 | 3 | 6.4 | 8.0 | 0.00 | 0.00 | 0.00 | 82 | 1017.8 |
| 20260905181336 | 25 | 48 | 4.8 | 9.7 | 0.00 | 0.00 | 0.00 | 83 | 1017.9 |
| 20260905180835 | 25 | 20 | 4.8 | 9.7 | 0.00 | 0.00 | 0.00 | 83 | 1017.7 |
| 20260905180331 | 26 | 3 | 4.8 | 9.7 | 0.00 | 0.00 | 0.00 | 83 | 1017.8 |
| 20260905175825 | 25 | 355 | 1.6 | 8.0 | 0.00 | 0.00 | 0.00 | 86 | 1017.7 |
| 20260905175320 | 25 | 44 | 1.6 | 9.7 | 0.00 | 0.00 | 0.00 | 85 | 1017.6 |
| 20260905174815 | 25 | 6 | 3.2 | 8.0 | 0.00 | 0.00 | 0.00 | 86 | 1017.7 |
| 20260905174311 | 25 | 20 | 4.8 | 11.3 | 0.00 | 0.00 | 0.00 | 86 | 1017.7 |
| 20260905173807 | 25 | 13 | 8.0 | 11.3 | 0.00 | 0.00 | 0.00 | 87 | 1017.8 |
| 20260905173303 | 25 | 22 | 8.0 | 12.9 | 0.00 | 0.00 | 0.00 | 87 | 1017.8 |
| 20260905172802 | 25 | 15 | 4.8 | 11.3 | 0.00 | 0.00 | 0.00 | 87 | 1017.9 |
| 20260905172301 | 25 | 51 | 4.8 | 9.7 | 0.00 | 0.00 | 0.00 | 87 | 1017.7 |
| 20260905171757 | 25 | 346 | 1.6 | 3.2 | 0.00 | 0.00 | 0.00 | 88 | 1017.9 |
| 20260905171253 | 24 | 339 | 4.8 | 9.7 | 0.00 | 0.00 | 0.00 | 88 | 1017.9 |
| 20260905170749 | 24 | 36 | 4.8 | 8.0 | 0.00 | 0.00 | 0.00 | 88 | 1017.9 |
| 20260905170245 | 24 | 28 | 1.6 | 9.7 | 0.00 | 0.00 | 0.00 | 88 | 1017.7 |
| 20260905165744 | 24 | 31 | 4.8 | 8.0 | 0.00 | 0.00 | 0.00 | 88 | 1017.9 |
| 20260905165240 | 24 | 82 | 6.4 | 8.0 | 0.00 | 0.00 | 0.00 | 88 | 1017.6 |
| 20260905164740 | 23 | 30 | 4.8 | 4.8 | 0.00 | 0.00 | 0.00 | 90 | 1017.8 |
| 20260905164234 | 23 | 56 | 4.8 | 8.0 | 0.00 | 0.00 | 0.00 | 91 | 1017.8 |
| 20260905163730 | 23 | 61 | 4.8 | 11.3 | 0.00 | 0.00 | 0.00 | 91 | 1017.9 |
| 20260905163226 | 23 | 54 | 4.8 | 12.9 | 0.00 | 0.00 | 0.00 | 91 | 1017.9 |
| 20260905162722 | 23 | 12 | 6.4 | 9.7 | 0.00 | 0.00 | 0.00 | 90 | 1017.8 |
| 20260905162222 | 23 | 72 | 6.4 | 8.0 | 0.00 | 0.00 | 0.00 | 90 | 1017.7 |
| 20260905161717 | 23 | 49 | 3.2 | 8.0 | 0.00 | 0.00 | 0.00 | 89 | 1017.7 |
| 20260905161215 | 24 | 5 | 4.8 | 8.0 | 0.00 | 0.00 | 0.00 | 89 | 1017.8 |
| 20260905160713 | 23 | 352 | 1.6 | 3.2 | 0.00 | 0.00 | 0.00 | 90 | 1018.0 |
| 20260905160208 | 23 | 36 | 1.6 | 8.0 | 0.00 | 0.00 | 0.00 | 91 | 1017.7 |
| 20260905155702 | 23 | 63 | 6.4 | 8.0 | 0.00 | 0.00 | 0.00 | 91 | 1017.7 |
| 20260905155202 | 23 | 60 | 4.8 | 8.0 | 0.00 | 0.00 | 0.00 | 92 | 1017.8 |
| 20260905154655 | 23 | 26 | 8.0 | 9.7 | 0.00 | 0.00 | 0.00 | 92 | 1017.7 |
| 20260905154151 | 23 | 74 | 4.8 | 11.3 | 0.00 | 0.00 | 0.00 | 92 | 1017.9 |
| 20260905153647 | 23 | 109 | 8.0 | 11.3 | 0.00 | 0.00 | 0.00 | 91 | 1017.6 |
| 20260905153142 | 23 | 44 | 4.8 | 8.0 | 0.00 | 0.00 | 0.00 | 93 | 1017.7 |
| 20260905152637 | 23 | 49 | 4.8 | 4.8 | 0.00 | 0.00 | 0.00 | 93 | 1017.3 |
| 20260905152132 | 23 | 68 | 3.2 | 9.7 | 0.00 | 0.00 | 0.00 | 92 | 1017.7 |
| 20260905151627 | 23 | 59 | 3.2 | 4.8 | 0.00 | 0.00 | 0.00 | 94 | 1017.5 |
| 20260905151122 | 22 | 94 | 6.4 | 9.7 | 0.00 | 0.00 | 0.00 | 95 | 1017.5 |
| 20260905150617 | 22 | 56 | 4.8 | 4.8 | 0.00 | 0.00 | 0.00 | 95 | 1017.6 |
| 20260905150115 | 22 | 78 | 3.2 | 9.7 | 0.00 | 0.00 | 0.00 | 96 | 1017.5 |
| 20260905145609 | 22 | 50 | 4.8 | 9.7 | 0.00 | 0.00 | 0.00 | 96 | 1017.4 |
| 20260905145108 | 22 | 81 | 3.2 | 9.7 | 0.00 | 0.00 | 0.00 | 97 | 1017.1 |
| 20260905144603 | 22 | 87 | 6.4 | 9.7 | 0.00 | 0.00 | 0.00 | 97 | 1017.4 |
| 20260905144102 | 22 | 78 | 4.8 | 11.3 | 0.00 | 0.00 | 0.00 | 97 | 1016.7 |
| 20260905143602 | 22 | 66 | 6.4 | 12.9 | 0.00 | 0.00 | 0.00 | 97 | 1016.9 |
| 20260905143057 | 22 | 79 | 6.4 | 12.9 | 0.00 | 0.00 | 0.00 | 97 | 1017.1 |
| 20260905142556 | 22 | 24 | 4.8 | 11.3 | 0.00 | 0.00 | 0.00 | 97 | 1017.1 |
| 20260905142056 | 22 | 41 | 3.2 | 9.7 | 0.00 | 0.00 | 0.00 | 97 | 1016.9 |
| 20260905141550 | 22 | 33 | 4.8 | 11.3 | 0.00 | 0.00 | 0.00 | 98 | 1016.9 |
| 20260905141047 | 22 | 93 | 4.8 | 9.7 | 0.00 | 0.00 | 0.00 | 98 | 1016.7 |
| 20260905140542 | 22 | 72 | 9.7 | 12.9 | 0.00 | 0.00 | 0.00 | 98 | 1017.1 |